Inuvik Mike Zubko Airport
CYEV : rendu visible

Aérodrome :











RETROUVEZ-NOUS SUR...

 
LOGIN :

S'inscrire | Disclaimer

   EN    FR    IT 

 









Légende :    VFR   VFR Marginal   IFR   IFR Intensif   IFR Très Intensif
Visi : 
Plafond : 
>= 8 km
>= 3000ft
5 à 8 km
1000 à 3000 ft
1500m à 5 km
500 à 1000 ft
800 à 1500m
200 à 500 ft
< 800m
< 200 ft
Symboles :   Orages  Brouillard  Fortes neiges  Fortes précipitations  Vent > 20 kt






- Altitude de l'aérodrome : 224 ft
- Code IATA : YEV


CYEV - Inuvik Mike Zubko

DERNIER METAR :
  • 151700Z 00000KT 15SM -SN FEW020 OVC040 M23/M26 A3001 RMK SC1SC7 SLP173

METARs EXPIRÉS :
  • 151600Z 01003KT 15SM -SN SCT020 OVC045 M24/M27 A3000 RMK SC4SC4 SLP171
  • 151500Z 36002KT 15SM -SN FEW033 FEW048 M24/M27 A3000 RMK SC1SC1 SLP172

TAF TAF CYEV
Valide du 15 à 13h jusqu'au 16 à 01h UTC


151238Z 1513/1601 VRB03KT P6SM SCT012 OVC050
TEMPO 1513/1517 5SM -SN BR OVC012
FM151700 VRB03KT P6SM SCT020 BKN040
TEMPO 1517/1601 P6SM -SN BKN020 OVC040 RMK NXT FCST BY 151900Z



MET'MAP, la Météo Aéronautique d'un coup d'oeil ! - Copyright ORBIFLY Décembre 2007 - Disclaimer

ORBIFLY MET'MAP TEAM :

Programmation & Développement : Alexandra Zaïnal
Conception & Développement : Baudouin d'Aumeries
Co-Programmation & Développement : Marc-Olivier Méhu
Soutien technique & logistique : Manuel Goepfert

Contact : metmap@orbifly.com




SOURCES & CREDITS :

   NOAA       Earth
Advisory